createdAt,value
2023-03-17T00:01:50.943Z,8.64
2023-03-17T00:04:21.844Z,8.63
2023-03-17T00:06:48.624Z,8.62
2023-03-17T00:09:17.500Z,8.63
2023-03-17T00:11:45.613Z,8.61
2023-03-17T00:14:12.142Z,8.57
2023-03-17T00:16:42.295Z,8.55
2023-03-17T00:19:17.114Z,8.52
2023-03-17T00:21:43.915Z,8.51
2023-03-17T00:24:14.738Z,8.47
2023-03-17T00:26:42.099Z,8.44
2023-03-17T00:29:09.056Z,8.39
2023-03-17T00:31:36.238Z,8.37
2023-03-17T00:34:02.718Z,8.36
2023-03-17T00:36:32.307Z,8.33
2023-03-17T00:38:59.466Z,8.29
2023-03-17T00:41:27.101Z,8.26
2023-03-17T00:43:54.024Z,8.23
2023-03-17T00:46:35.363Z,8.20
2023-03-17T00:51:43.726Z,8.12
2023-03-17T00:54:11.380Z,8.09
2023-03-17T00:56:39.412Z,8.07
2023-03-17T00:59:19.288Z,8.07
2023-03-17T01:01:46.630Z,8.06
2023-03-17T01:04:13.563Z,8.06
2023-03-17T01:06:40.092Z,8.06
2023-03-17T01:09:08.168Z,8.04
2023-03-17T01:11:34.970Z,8.05
2023-03-17T01:14:01.350Z,8.05
2023-03-17T01:16:28.974Z,8.03
2023-03-17T01:18:55.508Z,8.03
2023-03-17T01:21:22.344Z,8.01
2023-03-17T01:23:49.191Z,8.00
2023-03-17T01:26:15.586Z,7.97
2023-03-17T01:28:42.286Z,7.97
2023-03-17T01:31:09.513Z,7.96
2023-03-17T01:33:36.419Z,7.96
2023-03-17T01:36:02.943Z,7.94
2023-03-17T01:38:29.626Z,7.90
2023-03-17T01:40:56.706Z,7.86
2023-03-17T01:43:28.094Z,7.81
2023-03-17T01:46:20.852Z,7.74
2023-03-17T01:49:22.520Z,7.65
2023-03-17T01:52:09.980Z,7.60
2023-03-17T01:54:42.047Z,7.55
2023-03-17T01:57:29.569Z,7.47
2023-03-17T02:00:01.705Z,7.41
2023-03-17T02:02:31.323Z,7.32
2023-03-17T02:04:58.905Z,7.24
2023-03-17T02:07:26.706Z,7.20
2023-03-17T02:09:55.996Z,7.14
2023-03-17T02:12:24.573Z,7.08
2023-03-17T02:14:51.977Z,7.02
2023-03-17T02:17:21.112Z,6.98
2023-03-17T02:19:48.179Z,6.95
2023-03-17T02:22:16.670Z,6.91
2023-03-17T02:24:51.710Z,6.89
2023-03-17T02:27:41.868Z,6.85
2023-03-17T02:30:10.905Z,6.80
2023-03-17T02:32:38.122Z,6.79
2023-03-17T02:35:07.276Z,6.78
2023-03-17T02:37:34.414Z,6.77
2023-03-17T02:40:01.728Z,6.75
2023-03-17T02:42:29.040Z,6.70
2023-03-17T02:44:55.460Z,6.65
2023-03-17T02:47:22.089Z,6.59
2023-03-17T02:49:49.268Z,6.53
2023-03-17T02:52:15.910Z,6.45
2023-03-17T02:54:42.763Z,6.41
2023-03-17T02:57:09.296Z,6.36
2023-03-17T02:59:36.228Z,6.33
2023-03-17T03:02:02.834Z,6.28
2023-03-17T03:04:29.670Z,6.22
2023-03-17T03:06:56.967Z,6.19
2023-03-17T03:09:24.154Z,6.16
2023-03-17T03:11:50.784Z,6.12
2023-03-17T03:14:17.305Z,6.09
2023-03-17T03:16:43.891Z,6.07
2023-03-17T03:19:10.462Z,6.10
2023-03-17T03:21:37.125Z,6.09
2023-03-17T03:24:04.383Z,6.11
2023-03-17T03:26:31.048Z,6.07
2023-03-17T03:28:58.380Z,6.07
2023-03-17T03:31:24.995Z,6.06
2023-03-17T03:33:51.552Z,6.05
2023-03-17T03:36:18.475Z,6.02
2023-03-17T03:38:44.970Z,5.99
2023-03-17T03:41:11.479Z,5.99
2023-03-17T03:43:37.897Z,5.98
2023-03-17T03:46:05.018Z,5.99
2023-03-17T03:48:31.499Z,5.97
2023-03-17T03:50:59.576Z,5.99
2023-03-17T03:53:26.509Z,6.02
2023-03-17T03:55:53.724Z,6.03
2023-03-17T03:58:20.326Z,6.06
2023-03-17T04:00:47.216Z,6.07
2023-03-17T04:03:14.766Z,6.08
2023-03-17T04:05:41.245Z,6.09
2023-03-17T04:08:08.076Z,6.11
2023-03-17T04:10:34.622Z,6.09
2023-03-17T04:13:01.264Z,6.09
2023-03-17T04:15:27.774Z,6.08
2023-03-17T04:17:55.355Z,6.04
2023-03-17T04:20:22.205Z,6.01
2023-03-17T04:22:48.601Z,5.97
2023-03-17T04:25:15.745Z,5.91
2023-03-17T04:27:42.696Z,5.85
2023-03-17T04:30:13.691Z,5.79
2023-03-17T04:32:40.422Z,5.72
2023-03-17T04:35:10.905Z,5.67
2023-03-17T04:37:38.798Z,5.62
2023-03-17T04:40:09.858Z,5.60
2023-03-17T04:42:37.532Z,5.58
2023-03-17T04:45:06.308Z,5.62
2023-03-17T04:47:33.115Z,5.70
2023-03-17T04:49:59.575Z,5.79
2023-03-17T04:52:26.151Z,5.88
2023-03-17T04:54:53.172Z,5.98
2023-03-17T04:57:19.649Z,6.08
2023-03-17T04:59:46.162Z,6.16
2023-03-17T05:02:12.900Z,6.25
2023-03-17T05:04:39.465Z,6.29
2023-03-17T05:07:06.440Z,6.34
2023-03-17T05:09:32.886Z,6.38
2023-03-17T05:11:59.354Z,6.39
2023-03-17T05:14:25.785Z,6.36
2023-03-17T05:16:52.417Z,6.31
2023-03-17T05:19:19.208Z,6.28
2023-03-17T05:21:46.667Z,6.28
2023-03-17T05:24:13.255Z,6.28
2023-03-17T05:26:40.599Z,6.32
2023-03-17T05:29:07.182Z,6.35
2023-03-17T05:31:33.864Z,6.36
2023-03-17T05:34:00.469Z,6.35
2023-03-17T05:36:26.968Z,6.37
2023-03-17T05:38:53.437Z,6.40
2023-03-17T05:41:19.957Z,6.39
2023-03-17T05:43:46.858Z,6.39
2023-03-17T05:46:13.680Z,6.35
2023-03-17T05:48:40.145Z,6.32
2023-03-17T05:51:06.805Z,6.33
2023-03-17T05:53:33.675Z,6.35
2023-03-17T05:56:00.139Z,6.37
2023-03-17T05:58:26.568Z,6.41
2023-03-17T06:00:53.057Z,6.45
2023-03-17T06:03:19.532Z,6.51
2023-03-17T06:05:46.019Z,6.56
2023-03-17T06:08:13.053Z,6.59
2023-03-17T06:10:39.676Z,6.63
2023-03-17T06:13:06.149Z,6.67
2023-03-17T06:15:33.874Z,6.70
2023-03-17T06:18:00.670Z,6.75
2023-03-17T06:20:27.198Z,6.80
2023-03-17T06:23:03.933Z,6.81
2023-03-17T06:25:31.657Z,6.85
2023-03-17T06:27:58.300Z,6.89
2023-03-17T06:30:24.784Z,6.90
2023-03-17T06:32:51.359Z,6.94
2023-03-17T06:35:18.107Z,6.96
2023-03-17T06:37:44.578Z,7.01
2023-03-17T06:40:12.488Z,7.07
2023-03-17T06:42:38.891Z,7.10
2023-03-17T06:45:06.368Z,7.16
2023-03-17T06:47:34.109Z,7.21
2023-03-17T06:50:00.747Z,7.25
2023-03-17T06:52:27.656Z,7.29
2023-03-17T06:54:54.027Z,7.32
2023-03-17T06:57:20.747Z,7.38
2023-03-17T06:59:47.187Z,7.47
2023-03-17T07:02:13.661Z,7.55
2023-03-17T07:04:40.162Z,7.61
2023-03-17T07:07:06.748Z,7.73
2023-03-17T07:09:34.439Z,7.83
2023-03-17T07:12:05.039Z,7.88
2023-03-17T07:14:36.707Z,8.00
2023-03-17T07:17:04.172Z,8.08
2023-03-17T07:19:31.186Z,8.16
2023-03-17T07:21:57.649Z,8.28
2023-03-17T07:24:24.617Z,8.35
2023-03-17T07:26:51.658Z,8.44
2023-03-17T07:29:18.294Z,8.55
2023-03-17T07:31:45.451Z,8.66
2023-03-17T07:34:12.708Z,8.64
2023-03-17T07:36:40.064Z,8.64
2023-03-17T07:39:06.792Z,8.67
2023-03-17T07:41:33.605Z,8.72
2023-03-17T07:44:00.606Z,8.80
2023-03-17T07:46:27.101Z,8.85
2023-03-17T07:48:53.543Z,8.89
2023-03-17T07:51:22.741Z,8.97
2023-03-17T07:53:50.117Z,9.03
2023-03-17T07:56:17.704Z,9.11
2023-03-17T07:58:44.842Z,9.21
2023-03-17T08:01:11.292Z,9.29
2023-03-17T08:03:41.310Z,9.38
2023-03-17T08:06:08.624Z,9.43
2023-03-17T08:08:35.210Z,9.46
2023-03-17T08:11:03.684Z,9.51
2023-03-17T08:13:31.472Z,9.50
2023-03-17T08:15:58.449Z,9.54
2023-03-17T08:18:24.843Z,9.61
2023-03-17T08:20:51.473Z,9.64
2023-03-17T08:23:19.009Z,9.66
2023-03-17T08:25:46.609Z,9.72
2023-03-17T08:28:14.166Z,9.79
2023-03-17T08:30:44.733Z,9.84
2023-03-17T08:33:11.242Z,9.93
2023-03-17T08:35:41.457Z,10.04
2023-03-17T08:38:08.841Z,10.05
2023-03-17T08:40:36.604Z,10.11
2023-03-17T08:43:03.200Z,10.15
2023-03-17T08:45:29.948Z,10.27
2023-03-17T08:47:56.625Z,10.36
2023-03-17T08:50:23.897Z,10.41
2023-03-17T08:52:51.769Z,10.45
2023-03-17T08:55:19.412Z,10.50
2023-03-17T08:57:46.237Z,10.56
2023-03-17T09:00:16.732Z,10.64
2023-03-17T09:02:45.005Z,10.74
2023-03-17T09:05:13.980Z,10.78
2023-03-17T09:07:41.591Z,10.81
2023-03-17T09:10:09.517Z,10.86
2023-03-17T09:12:35.956Z,10.88
2023-03-17T09:15:02.378Z,10.83
2023-03-17T09:17:28.911Z,10.90
2023-03-17T09:19:55.342Z,10.93
2023-03-17T09:22:21.986Z,10.98
2023-03-17T09:24:48.436Z,11.06
2023-03-17T09:27:14.835Z,11.15
2023-03-17T09:29:42.074Z,11.28
2023-03-17T09:32:08.735Z,11.33
2023-03-17T09:34:35.811Z,11.44
2023-03-17T09:37:02.240Z,11.56
2023-03-17T09:39:28.775Z,11.67
2023-03-17T09:42:19.800Z,11.77
2023-03-17T09:45:21.631Z,11.86
2023-03-17T09:48:03.033Z,11.95
2023-03-17T09:51:02.940Z,12.08
2023-03-17T09:53:34.614Z,12.20
2023-03-17T09:56:08.407Z,12.26
2023-03-17T09:58:36.766Z,12.38
2023-03-17T10:01:05.399Z,12.46
2023-03-17T10:03:33.134Z,12.54
2023-03-17T10:06:15.854Z,12.65
2023-03-17T10:09:00.605Z,12.68
2023-03-17T10:11:47.747Z,12.76
2023-03-17T10:14:29.435Z,12.75
2023-03-17T10:17:16.429Z,12.87
2023-03-17T10:19:50.105Z,12.90
2023-03-17T10:22:25.181Z,12.94
2023-03-17T10:24:56.105Z,12.93
2023-03-17T10:27:23.130Z,12.96
2023-03-17T10:29:49.710Z,12.95
2023-03-17T10:32:16.240Z,12.93
2023-03-17T10:34:43.416Z,12.98
2023-03-17T10:37:17.623Z,13.00
2023-03-17T10:39:49.076Z,13.07
2023-03-17T10:42:30.284Z,13.09
2023-03-17T10:44:58.206Z,13.24
2023-03-17T10:47:38.193Z,13.30
2023-03-17T10:50:28.768Z,13.41
2023-03-17T10:53:04.096Z,13.45
2023-03-17T10:55:40.829Z,13.51
2023-03-17T10:58:15.352Z,13.58
2023-03-17T11:00:56.715Z,13.67
2023-03-17T11:03:27.337Z,13.81
2023-03-17T11:06:10.181Z,13.89
2023-03-17T11:08:49.190Z,13.93
2023-03-17T11:11:30.768Z,14.01
2023-03-17T11:14:13.448Z,14.06
2023-03-17T11:16:54.513Z,14.13
2023-03-17T11:19:30.969Z,14.13
2023-03-17T11:22:25.924Z,14.14
2023-03-17T11:25:11.543Z,14.20
2023-03-17T11:27:44.439Z,14.29
2023-03-17T11:30:45.753Z,14.20
2023-03-17T11:33:42.505Z,14.25
2023-03-17T11:36:36.203Z,14.35
2023-03-17T11:39:16.522Z,14.35
2023-03-17T11:41:56.370Z,14.30
2023-03-17T11:44:44.452Z,14.38
2023-03-17T11:47:18.233Z,14.41
2023-03-17T11:49:50.938Z,14.46
2023-03-17T11:52:38.719Z,14.53
2023-03-17T11:55:11.165Z,14.53
2023-03-17T11:57:58.715Z,14.58
2023-03-17T12:01:00.332Z,14.76
2023-03-17T12:03:48.636Z,15.03
2023-03-17T12:06:25.864Z,15.09
2023-03-17T12:09:17.400Z,15.24
2023-03-17T12:11:45.721Z,15.34
2023-03-17T12:14:26.900Z,15.44
2023-03-17T12:17:01.711Z,15.56
2023-03-17T12:19:39.672Z,15.57
2023-03-17T12:22:17.093Z,15.66
2023-03-17T12:25:38.981Z,15.85
2023-03-17T12:28:09.820Z,15.92
2023-03-17T12:31:04.145Z,16.02
2023-03-17T12:33:37.813Z,16.01
2023-03-17T12:36:05.906Z,16.05
2023-03-17T12:38:39.795Z,16.07
2023-03-17T12:41:15.320Z,16.06
2023-03-17T12:44:06.762Z,16.10
2023-03-17T12:46:52.170Z,16.03
2023-03-17T12:49:45.183Z,16.07
2023-03-17T12:52:16.776Z,16.07
2023-03-17T12:54:49.886Z,16.07
2023-03-17T12:57:22.419Z,16.05
2023-03-17T12:59:57.627Z,16.06
2023-03-17T13:02:29.976Z,16.12
2023-03-17T13:05:00.575Z,16.21
2023-03-17T13:07:34.301Z,16.24
2023-03-17T13:10:00.625Z,16.30
2023-03-17T13:12:42.700Z,16.34
2023-03-17T13:15:47.383Z,16.36
2023-03-17T13:18:16.830Z,16.35
2023-03-17T13:20:51.374Z,16.36
2023-03-17T13:23:23.596Z,16.35
2023-03-17T13:25:53.636Z,16.33
2023-03-17T13:28:45.330Z,16.26
2023-03-17T13:31:26.840Z,16.22
2023-03-17T13:33:56.279Z,16.16
2023-03-17T13:36:25.537Z,16.15
2023-03-17T13:39:27.323Z,16.15
2023-03-17T13:42:23.282Z,16.18
2023-03-17T13:45:32.683Z,16.12
2023-03-17T13:48:37.941Z,16.06
2023-03-17T13:51:24.057Z,15.98
2023-03-17T13:53:56.561Z,16.01
2023-03-17T13:56:45.557Z,15.97
2023-03-17T13:59:14.357Z,15.94
2023-03-17T14:02:12.256Z,15.94
2023-03-17T14:04:57.506Z,15.93
2023-03-17T14:07:28.071Z,15.87
2023-03-17T14:09:59.130Z,15.86
2023-03-17T14:12:39.337Z,15.83
2023-03-17T14:15:17.862Z,15.83
2023-03-17T14:18:10.958Z,15.77
2023-03-17T14:20:37.402Z,15.80
2023-03-17T14:23:04.461Z,15.74
2023-03-17T14:25:37.117Z,15.67
2023-03-17T14:28:12.592Z,15.65
2023-03-17T14:30:39.505Z,15.58
2023-03-17T14:33:12.031Z,15.56
2023-03-17T14:35:43.138Z,15.56
2023-03-17T14:38:19.832Z,15.54
2023-03-17T14:40:47.248Z,15.55
2023-03-17T14:43:15.068Z,15.51
2023-03-17T14:45:51.347Z,15.50
2023-03-17T14:48:25.924Z,15.51
2023-03-17T14:50:59.775Z,15.51
2023-03-17T14:53:26.383Z,15.51
2023-03-17T14:55:53.638Z,15.50
2023-03-17T14:58:26.360Z,15.47
2023-03-17T15:01:03.007Z,15.43
2023-03-17T15:03:31.571Z,15.41
2023-03-17T15:06:24.627Z,15.43
2023-03-17T15:08:52.539Z,15.40
2023-03-17T15:11:28.476Z,15.38
2023-03-17T15:14:03.408Z,15.36
2023-03-17T15:16:33.754Z,15.36
2023-03-17T15:19:24.156Z,15.33
2023-03-17T15:21:50.804Z,15.32
2023-03-17T15:24:34.623Z,15.29
2023-03-17T15:27:03.529Z,15.27
2023-03-17T15:29:30.627Z,15.29
2023-03-17T15:32:02.902Z,15.30
2023-03-17T15:34:29.386Z,15.29
2023-03-17T15:36:57.051Z,15.27
2023-03-17T15:39:24.332Z,15.28
2023-03-17T15:41:50.889Z,15.28
2023-03-17T15:44:17.291Z,15.29
2023-03-17T15:46:43.709Z,15.30
2023-03-17T15:49:12.956Z,15.29
2023-03-17T15:51:39.573Z,15.31
2023-03-17T15:54:06.028Z,15.31
2023-03-17T15:56:32.519Z,15.32
2023-03-17T15:58:59.101Z,15.31
2023-03-17T16:01:27.889Z,15.30
2023-03-17T16:03:54.664Z,15.31
2023-03-17T16:06:22.990Z,15.33
2023-03-17T16:08:50.149Z,15.35
2023-03-17T16:11:19.910Z,15.37
2023-03-17T16:13:47.180Z,15.37
2023-03-17T16:16:40.013Z,15.36
2023-03-17T16:19:10.261Z,15.39
2023-03-17T16:21:37.256Z,15.40
2023-03-17T16:24:03.808Z,15.41
2023-03-17T16:26:30.378Z,15.41
2023-03-17T16:28:57.504Z,15.43
2023-03-17T16:31:31.393Z,15.42
2023-03-17T16:33:58.009Z,15.37
2023-03-17T16:36:25.682Z,15.33
2023-03-17T16:38:52.582Z,15.30
2023-03-17T16:41:24.921Z,15.27
2023-03-17T16:43:56.679Z,15.21
2023-03-17T16:46:23.519Z,15.17
2023-03-17T16:48:50.385Z,15.09
2023-03-17T16:51:17.836Z,15.04
2023-03-17T16:53:46.827Z,15.00
2023-03-17T16:56:16.661Z,14.98
2023-03-17T16:58:43.477Z,14.92
2023-03-17T17:01:14.857Z,14.86
2023-03-17T17:03:41.493Z,14.78
2023-03-17T17:06:09.562Z,14.78
2023-03-17T17:08:36.205Z,14.72
2023-03-17T17:11:02.856Z,14.71
2023-03-17T17:13:29.277Z,14.68
2023-03-17T17:15:56.232Z,14.65
2023-03-17T17:18:24.639Z,14.61
2023-03-17T17:20:52.829Z,14.60
2023-03-17T17:23:26.912Z,14.56
2023-03-17T17:25:54.492Z,14.49
2023-03-17T17:28:23.240Z,14.49
2023-03-17T17:30:50.950Z,14.47
2023-03-17T17:33:19.138Z,14.42
2023-03-17T17:35:46.178Z,14.40
2023-03-17T17:38:19.816Z,14.35
2023-03-17T17:40:46.574Z,14.32
2023-03-17T17:43:13.072Z,14.28
2023-03-17T17:45:39.859Z,14.25
2023-03-17T17:48:06.330Z,14.23
2023-03-17T17:50:33.357Z,14.22
2023-03-17T17:53:05.236Z,14.15
2023-03-17T17:55:33.757Z,14.12
2023-03-17T17:58:00.853Z,14.10
2023-03-17T18:00:27.701Z,14.06
2023-03-17T18:02:54.208Z,14.03
2023-03-17T18:05:20.973Z,14.01
2023-03-17T18:07:47.505Z,13.98
2023-03-17T18:10:23.969Z,13.95
2023-03-17T18:12:50.681Z,13.92
2023-03-17T18:15:17.752Z,13.89
2023-03-17T18:17:44.245Z,13.86
2023-03-17T18:20:13.507Z,13.81
2023-03-17T18:22:40.813Z,13.78
2023-03-17T18:25:09.853Z,13.75
2023-03-17T18:27:37.659Z,13.74
2023-03-17T18:30:07.229Z,13.73
2023-03-17T18:32:33.777Z,13.73
2023-03-17T18:35:03.491Z,13.72
2023-03-17T18:37:31.049Z,13.69
2023-03-17T18:40:12.581Z,13.63
2023-03-17T18:42:41.086Z,13.61
2023-03-17T18:45:09.658Z,13.56
2023-03-17T18:47:38.801Z,13.54
2023-03-17T18:50:07.066Z,13.51
2023-03-17T18:52:35.744Z,13.47
2023-03-17T18:55:02.766Z,13.41
2023-03-17T18:57:29.338Z,13.36
2023-03-17T18:59:55.912Z,13.30
2023-03-17T19:02:22.759Z,13.23
2023-03-17T19:04:49.404Z,13.16
2023-03-17T19:07:16.423Z,13.11
2023-03-17T19:09:42.965Z,13.07
2023-03-17T19:12:09.878Z,13.03
2023-03-17T19:14:38.747Z,12.99
2023-03-17T19:17:06.210Z,12.97
2023-03-17T19:19:33.869Z,12.93
2023-03-17T19:22:01.953Z,12.87
2023-03-17T19:24:28.350Z,12.84
2023-03-17T19:26:54.827Z,12.83
2023-03-17T19:29:21.291Z,12.80
2023-03-17T19:31:48.683Z,12.78
2023-03-17T19:34:15.473Z,12.78
2023-03-17T19:36:45.753Z,12.77
2023-03-17T19:39:13.160Z,12.72
2023-03-17T19:41:39.975Z,12.69
2023-03-17T19:44:06.816Z,12.64
2023-03-17T19:46:34.280Z,12.59
2023-03-17T19:49:01.580Z,12.58
2023-03-17T19:51:28.860Z,12.56
2023-03-17T19:53:55.845Z,12.51
2023-03-17T19:56:23.093Z,12.48
2023-03-17T19:58:50.012Z,12.42
2023-03-17T20:01:17.122Z,12.36
2023-03-17T20:03:43.769Z,12.33
2023-03-17T20:06:11.917Z,12.29
2023-03-17T20:08:39.392Z,12.24
2023-03-17T20:11:06.282Z,12.20
2023-03-17T20:13:34.523Z,12.14
2023-03-17T20:16:02.003Z,12.10
2023-03-17T20:18:29.310Z,12.06
2023-03-17T20:20:57.471Z,12.04
2023-03-17T20:23:25.094Z,12.00
2023-03-17T20:25:52.488Z,11.97
2023-03-17T20:28:21.323Z,11.93
2023-03-17T20:30:49.279Z,11.92
2023-03-17T20:33:16.832Z,11.89
2023-03-17T20:35:46.780Z,11.87
2023-03-17T20:38:14.509Z,11.86
2023-03-17T20:40:41.758Z,11.85
2023-03-17T20:43:08.494Z,11.83
2023-03-17T20:45:35.054Z,11.83
2023-03-17T20:48:02.006Z,11.80
2023-03-17T20:50:30.939Z,11.79
2023-03-17T20:52:57.779Z,11.79
2023-03-17T20:55:25.494Z,11.78
2023-03-17T20:57:52.625Z,11.77
2023-03-17T21:00:21.161Z,11.75
2023-03-17T21:02:50.140Z,11.73
2023-03-17T21:05:23.153Z,11.69
2023-03-17T21:07:50.139Z,11.66
2023-03-17T21:10:18.010Z,11.64
2023-03-17T21:12:45.305Z,11.63
2023-03-17T21:15:12.927Z,11.62
2023-03-17T21:17:40.088Z,11.60
2023-03-17T21:20:09.540Z,11.60
2023-03-17T21:22:36.773Z,11.60
2023-03-17T21:25:04.695Z,11.60
2023-03-17T21:27:31.126Z,11.59
2023-03-17T21:29:57.598Z,11.54
2023-03-17T21:32:25.104Z,11.51
2023-03-17T21:34:51.638Z,11.49
2023-03-17T21:37:18.734Z,11.44
2023-03-17T21:39:45.791Z,11.37
2023-03-17T21:42:12.611Z,11.38
2023-03-17T21:44:39.460Z,11.40
2023-03-17T21:47:05.866Z,11.39
2023-03-17T21:49:32.264Z,11.38
2023-03-17T21:51:58.672Z,11.36
2023-03-17T21:54:25.593Z,11.32
2023-03-17T21:56:52.670Z,11.28
2023-03-17T21:59:20.928Z,11.27
2023-03-17T22:01:47.898Z,11.21
2023-03-17T22:04:14.403Z,11.22
2023-03-17T22:06:41.197Z,11.20
2023-03-17T22:09:08.609Z,11.18
2023-03-17T22:11:35.071Z,11.20
2023-03-17T22:14:01.896Z,11.16
2023-03-17T22:16:28.489Z,11.11
2023-03-17T22:18:55.036Z,11.08
2023-03-17T22:21:21.625Z,11.06
2023-03-17T22:23:48.167Z,11.03
2023-03-17T22:26:17.739Z,11.01
2023-03-17T22:28:45.384Z,10.96
2023-03-17T22:31:19.997Z,10.92
2023-03-17T22:33:48.804Z,10.93
2023-03-17T22:36:15.998Z,10.95
2023-03-17T22:38:42.423Z,10.97
2023-03-17T22:41:13.604Z,10.99
2023-03-17T22:43:41.603Z,10.99
2023-03-17T22:46:09.244Z,10.99
2023-03-17T22:48:36.129Z,10.97
2023-03-17T22:51:03.774Z,10.99
2023-03-17T22:53:31.433Z,10.97
2023-03-17T22:55:58.275Z,10.94
2023-03-17T22:58:26.048Z,10.95
2023-03-17T23:00:53.679Z,10.96
2023-03-17T23:03:20.580Z,10.98
2023-03-17T23:05:49.639Z,11.01
2023-03-17T23:08:20.145Z,11.04
2023-03-17T23:10:50.552Z,11.06
2023-03-17T23:13:18.848Z,11.06
2023-03-17T23:15:45.838Z,11.09
2023-03-17T23:18:12.247Z,11.10
2023-03-17T23:20:40.108Z,11.11
2023-03-17T23:23:08.297Z,11.11
2023-03-17T23:25:36.485Z,11.12
2023-03-17T23:28:03.219Z,11.11
2023-03-17T23:30:30.870Z,11.13
2023-03-17T23:32:58.128Z,11.13
2023-03-17T23:35:25.237Z,11.13
2023-03-17T23:37:51.988Z,11.10
2023-03-17T23:40:18.540Z,11.10
2023-03-17T23:42:46.022Z,11.09
2023-03-17T23:45:12.511Z,11.10
2023-03-17T23:47:38.947Z,11.12
2023-03-17T23:50:05.959Z,11.13
2023-03-17T23:52:32.677Z,11.13
2023-03-17T23:54:59.081Z,11.15
2023-03-17T23:57:26.020Z,11.14
2023-03-17T23:59:52.452Z,11.16
